Tipton, Missouri
Current Conditions -  °F | °C
As of 4:55 AM on Wednesday 22 Oct 2014 (Local Time) from KVER Reporting Station
Haze Haze  
Wind Chill:   Ceiling: 200
Heat Index:   Visibility: 0.25mi
Dew Point:   Wind: 5mph
Humidity: 83%   Direction: 100°E
Pressure: 30.22"   Gusts: NA
Location:  38.66°N, 92.78°W
Report Text: KVER 220955Z AUTO 10004KT 1/4SM HZ VV002 08/05 A3022 RMK AO2 T00770049
Loading
Personal Weather Stations






























Interactive Weather Map
Tropical Storm Tracking
New forecast layout! Learn more

10-Day Weather Forecast

Advertisements
Track Severe Weather on mobile